Neerijnen, Netherlands
Current Conditions -  °F | °C
As of 4:10 PM on Wednesday 26 Nov 2014 (Local Time) from EHVK Reporting Station
Overcast Overcast  
Wind Chill: 39°   Ceiling: 2600
Heat Index: 45°   Visibility: 6mi
Dew Point: 37°   Wind: 12mph
Humidity: 76%   Direction: 120°ESE
Pressure: 29.91"   Gusts: NA
Location:  51.83°N, 5.28°E
Report Text: EHVK 261510Z AUTO 12010KT 9999 FEW020 OVC026 07/03 Q1013 BLU 11011KT 9999 BKN025 BECMG BKN017
Loading
Personal Weather Stations






























Interactive Weather Map New forecast layout! Learn more

10-Day Weather Forecast

Advertisements
Track Severe Weather on mobile